Time;durP1;ratioP1;P1;durP2;ratioP2;P2;SDS_P1;SDS_P2;PMS_P1;PMS_P2;Temp;Humidity;BMP_temperature;BMP_pressure;BME280_temperature;BME280_humidity;BME280_pressure;Samples;Min_cycle;Max_cycle;Signal;HPM_P1;HPM_P2
2023/07/15 00:01:23;;;;;;;2.97;2.97;;;;;;;-145.94;36.72;74902.31;5137687;27;20192;-67
2023/07/15 00:03:51;;;;;;;2.33;2.20;;;;;;;-145.94;36.92;74892.13;5137760;27;20181;-66
2023/07/15 00:06:21;;;;;;;2.60;2.60;;;;;;;-145.94;36.73;74886.03;5137695;27;20263;-65
2023/07/15 00:08:48;;;;;;;4.40;3.03;;;;;;;-145.94;36.51;74875.84;5137613;27;20186;-66
2023/07/15 00:11:32;;;;;;;3.05;2.72;;;;;;;-145.94;35.95;74855.44;5137523;27;20249;-65
2023/07/15 00:14:00;;;;;;;4.97;3.30;;;;;;;-145.94;36.11;74837.09;5137853;27;20567;-65
2023/07/15 00:16:29;;;;;;;2.50;2.50;;;;;;;-145.94;35.85;74835.06;5137468;27;20181;-65
2023/07/15 00:18:56;;;;;;;2.38;2.03;;;;;;;-145.94;35.64;74822.84;5137347;27;20252;-65
2023/07/15 00:21:25;;;;;;;2.92;2.80;;;;;;;-145.94;35.84;74816.72;5137782;27;20537;-66
2023/07/15 00:23:57;;;;;;;2.85;2.65;;;;;;;-145.94;35.68;74828.94;5137318;27;20188;-67
2023/07/15 00:26:26;;;;;;;2.17;2.17;;;;;;;-145.94;35.73;74814.69;5137802;27;20172;-66
2023/07/15 00:28:52;;;;;;;3.35;2.60;;;;;;;-145.94;36.02;74818.75;5118852;27;20189;-66
2023/07/15 00:31:19;;;;;;;2.38;2.28;;;;;;;-145.94;35.67;74820.81;5137034;27;20222;-66
2023/07/15 00:33:47;;;;;;;2.40;2.40;;;;;;;-145.94;35.66;74822.84;5137435;27;20229;-67
2023/07/15 00:36:14;;;;;;;2.95;2.85;;;;;;;-145.94;35.70;74812.66;5137654;27;20543;-66
2023/07/15 00:38:42;;;;;;;4.72;2.35;;;;;;;-145.94;35.69;74810.59;5136975;27;20287;-66
2023/07/15 00:41:17;;;;;;;2.33;2.33;;;;;;;-145.94;35.57;74810.59;5118323;27;20281;-67
2023/07/15 00:46:20;;;;;;;2.78;2.78;;;;;;;-145.94;35.59;74810.59;5137464;27;20652;-66
2023/07/15 00:49:03;;;;;;;3.03;3.03;;;;;;;-145.94;35.69;74812.66;5136856;27;20172;-66
2023/07/15 00:51:35;;;;;;;2.97;2.70;;;;;;;-145.94;35.90;74812.66;5118345;27;20243;-67
2023/07/15 00:54:03;;;;;;;2.30;2.30;;;;;;;-145.94;35.67;74831.00;5137017;27;20177;-66
2023/07/15 00:56:32;;;;;;;2.53;2.38;;;;;;;-145.94;35.95;74822.84;5118344;27;20192;-67
2023/07/15 00:58:59;;;;;;;2.90;2.72;;;;;;;-145.94;35.83;74820.81;5118157;27;20261;-66
2023/07/15 01:01:25;;;;;;;12.60;3.13;;;;;;;-145.94;35.68;74816.72;5118138;27;20220;-66
2023/07/15 01:03:54;;;;;;;2.65;2.65;;;;;;;-145.94;35.79;74814.69;5118181;27;20196;-66
2023/07/15 01:06:22;;;;;;;3.45;3.35;;;;;;;-145.94;35.66;74812.66;5118173;27;20212;-66
2023/07/15 01:08:49;;;;;;;7.15;3.03;;;;;;;-145.94;35.93;74814.69;5136501;27;20229;-66
2023/07/15 01:11:15;;;;;;;2.80;2.70;;;;;;;-145.94;35.78;74814.69;5136361;27;20196;-66
2023/07/15 01:13:43;;;;;;;3.08;2.97;;;;;;;-145.94;35.87;74810.59;5136405;27;20205;-66
2023/07/15 01:16:10;;;;;;;2.70;2.70;;;;;;;-145.94;35.90;74810.59;5117894;27;20188;-66
2023/07/15 01:18:38;;;;;;;4.78;2.95;;;;;;;-145.94;35.88;74822.84;5117729;27;20209;-66
2023/07/15 01:21:05;;;;;;;2.40;2.40;;;;;;;-145.94;36.04;74820.81;5136159;27;20590;-67
2023/07/15 01:23:32;;;;;;;2.63;2.33;;;;;;;-145.94;35.87;74816.72;5136512;27;20255;-66
2023/07/15 01:25:59;;;;;;;2.47;2.00;;;;;;;-145.94;35.98;74816.72;5117692;27;20697;-66
2023/07/15 01:28:25;;;;;;;2.10;2.10;;;;;;;-145.94;36.22;74796.34;5117997;27;20204;-66
2023/07/15 01:30:52;;;;;;;2.20;2.20;;;;;;;-145.94;35.95;74806.53;5135922;27;20275;-66
2023/07/15 01:33:18;;;;;;;6.82;2.00;;;;;;;-145.94;36.46;74822.84;5136005;27;20184;-67
2023/07/15 01:35:47;;;;;;;2.25;2.25;;;;;;;-145.94;36.08;74820.81;5117550;27;20203;-66
2023/07/15 01:38:15;;;;;;;2.20;2.10;;;;;;;-145.94;35.97;74820.81;5117356;27;20209;-66
2023/07/15 01:40:42;;;;;;;2.22;2.13;;;;;;;-145.94;36.11;74818.75;5117432;27;20193;-66
2023/07/15 01:43:10;;;;;;;3.45;1.92;;;;;;;-145.94;36.03;74820.81;5135696;27;20232;-66
2023/07/15 01:45:39;;;;;;;2.47;2.03;;;;;;;-145.94;36.39;74818.75;5117326;27;20288;-66
2023/07/15 01:48:07;;;;;;;2.20;2.20;;;;;;;-145.94;36.35;74822.84;5117252;27;20184;-66
2023/07/15 01:50:35;;;;;;;2.00;2.00;;;;;;;-145.94;36.36;74822.84;5117300;27;20627;-66
2023/07/15 01:53:02;;;;;;;2.10;2.10;;;;;;;-145.94;36.88;74831.00;5116961;27;20210;-66
2023/07/15 01:55:28;;;;;;;2.00;2.00;;;;;;;-145.94;37.37;74835.06;5135562;27;20184;-66
2023/07/15 01:57:55;;;;;;;1.98;1.98;;;;;;;-145.94;37.46;74839.16;5116989;27;20261;-66
2023/07/15 02:00:22;;;;;;;2.25;2.22;;;;;;;-145.94;37.32;74835.06;5117031;27;20189;-66
2023/07/15 02:02:49;;;;;;;2.28;2.25;;;;;;;-145.94;37.53;74841.19;5135417;27;20201;-66
2023/07/15 02:05:16;;;;;;;2.50;2.50;;;;;;;-145.94;37.74;74843.22;5116897;27;20677;-66
2023/07/15 02:07:42;;;;;;;2.97;2.88;;;;;;;-145.94;37.80;74849.34;5116861;27;20223;-66
2023/07/15 02:10:09;;;;;;;5.57;2.30;;;;;;;-145.94;37.84;74857.50;5135272;27;20188;-66
2023/07/15 02:12:36;;;;;;;3.20;2.27;;;;;;;-145.94;37.79;74849.34;5135118;27;20204;-66
2023/07/15 02:15:04;;;;;;;1.93;1.93;;;;;;;-145.94;37.80;74857.50;5116757;27;20200;-66
2023/07/15 02:17:30;;;;;;;2.05;2.05;;;;;;;-145.94;37.79;74853.41;5135021;27;20188;-66
2023/07/15 02:19:58;;;;;;;10.32;2.65;;;;;;;-145.94;37.57;74855.44;5116642;27;20188;-66
2023/07/15 02:22:25;;;;;;;2.28;2.28;;;;;;;-145.94;37.52;74847.28;5135021;27;20336;-67
2023/07/15 02:24:51;;;;;;;2.00;2.00;;;;;;;-145.94;37.42;74843.22;5135270;27;20191;-66
2023/07/15 02:27:18;;;;;;;2.38;2.38;;;;;;;-145.94;37.62;74847.28;5134959;27;20184;-66
2023/07/15 02:29:44;;;;;;;2.30;2.30;;;;;;;-145.94;37.56;74847.28;5116326;27;20195;-66
2023/07/15 02:32:17;;;;;;;2.30;2.30;;;;;;;-145.94;37.43;74833.03;5134838;27;20614;-66
2023/07/15 02:34:43;;;;;;;2.20;2.20;;;;;;;-145.94;37.39;74824.88;5135407;27;20184;-66
2023/07/15 02:37:10;;;;;;;2.85;2.75;;;;;;;-145.94;37.59;74828.94;5134803;27;20288;-66
2023/07/15 02:39:36;;;;;;;3.35;3.10;;;;;;;-145.94;37.03;74833.03;5134958;27;20204;-66
2023/07/15 02:42:03;;;;;;;2.63;2.63;;;;;;;-145.94;37.14;74831.00;5134786;27;20257;-66
2023/07/15 02:44:29;;;;;;;4.75;2.67;;;;;;;-145.94;37.28;74828.94;5134675;27;20180;-66
2023/07/15 02:46:56;;;;;;;2.60;2.60;;;;;;;-145.94;37.46;74828.94;5134675;27;20188;-66
2023/07/15 02:49:22;;;;;;;3.17;2.50;;;;;;;-145.94;37.95;74837.09;5116138;27;20198;-66
2023/07/15 02:51:49;;;;;;;3.17;2.92;;;;;;;-145.94;37.66;74837.09;5134678;27;20230;-66
2023/07/15 02:54:16;;;;;;;2.10;2.10;;;;;;;-145.94;38.17;74849.34;5116043;27;20699;-66
2023/07/15 02:56:42;;;;;;;4.97;2.72;;;;;;;-145.94;38.28;74867.69;5134477;27;20191;-66
2023/07/15 02:59:08;;;;;;;2.90;2.80;;;;;;;-145.94;38.47;74869.72;5134387;27;20200;-66
2023/07/15 03:01:35;;;;;;;2.50;2.50;;;;;;;-145.94;39.07;74886.03;5115964;27;20220;-66
2023/07/15 03:04:04;;;;;;;2.67;2.67;;;;;;;-145.94;39.04;74896.22;5133437;27;20205;-66
2023/07/15 03:06:31;;;;;;;2.93;2.83;;;;;;;-145.94;38.62;74898.25;5134361;27;20189;-66
2023/07/15 03:08:58;;;;;;;8.70;2.43;;;;;;;-145.94;38.80;74900.28;5134317;27;20191;-66
2023/07/15 03:11:26;;;;;;;2.40;2.30;;;;;;;-145.94;38.60;74902.31;5134468;27;20586;-66
2023/07/15 03:13:55;;;;;;;2.57;2.50;;;;;;;-145.94;38.22;74900.28;5115890;28;20188;-66
2023/07/15 03:16:22;;;;;;;2.27;2.27;;;;;;;-145.94;38.21;74898.25;5134130;28;20180;-66
2023/07/15 03:18:48;;;;;;;2.50;2.30;;;;;;;-145.94;37.90;74902.31;5115826;28;20212;-66
2023/07/15 03:21:15;;;;;;;2.10;2.10;;;;;;;-145.94;38.04;74888.06;5134373;28;20208;-66
2023/07/15 03:23:41;;;;;;;2.40;2.40;;;;;;;-145.94;38.19;74900.28;5134468;28;20249;-66
2023/07/15 03:26:08;;;;;;;2.57;2.43;;;;;;;-145.94;38.11;74902.31;5115804;28;20188;-66
2023/07/15 03:28:35;;;;;;;2.50;2.40;;;;;;;-145.94;37.71;74900.28;5134404;28;20249;-66
2023/07/15 03:31:01;;;;;;;2.90;2.80;;;;;;;-145.94;37.55;74900.28;5133976;28;20245;-67
2023/07/15 03:33:30;;;;;;;2.90;2.80;;;;;;;-145.94;37.39;74890.09;5115731;28;20620;-66
2023/07/15 03:35:59;;;;;;;3.10;3.10;;;;;;;-145.94;37.90;74888.06;5134381;28;20627;-66
2023/07/15 03:38:25;;;;;;;2.60;2.50;;;;;;;-145.94;38.22;74894.19;5115603;28;20204;-66
2023/07/15 03:40:54;;;;;;;2.27;2.27;;;;;;;-145.94;37.84;74898.25;5134569;28;20631;-66
2023/07/15 03:43:20;;;;;;;2.42;2.40;;;;;;;-145.94;37.25;74890.09;5134062;28;20165;-66
2023/07/15 03:45:47;;;;;;;3.40;1.93;;;;;;;-145.94;37.19;74881.94;5133988;28;20181;-66
2023/07/15 03:48:13;;;;;;;2.10;2.10;;;;;;;-145.94;37.15;74879.91;5115755;28;20259;-66
2023/07/15 03:50:40;;;;;;;2.50;2.40;;;;;;;-145.94;37.16;74865.63;5133881;28;20188;-66
2023/07/15 03:53:06;;;;;;;2.43;2.40;;;;;;;-145.94;37.45;74873.78;5134101;28;20257;-67
2023/07/15 03:55:32;;;;;;;2.33;2.07;;;;;;;-145.94;37.19;74873.78;5133842;28;20188;-66
2023/07/15 03:57:59;;;;;;;1.97;1.97;;;;;;;-145.94;37.07;74861.56;5133752;28;20268;-66
2023/07/15 04:00:26;;;;;;;2.50;2.30;;;;;;;-145.94;37.17;74869.72;5134105;28;20571;-66
2023/07/15 04:02:54;;;;;;;4.85;2.80;;;;;;;-145.94;36.93;74863.59;5133715;28;20201;-66
2023/07/15 04:05:20;;;;;;;2.03;2.03;;;;;;;-145.94;36.84;74863.59;5134219;28;20191;-66
2023/07/15 04:07:47;;;;;;;1.90;1.90;;;;;;;-145.94;37.34;74853.41;5133774;28;20238;-66
2023/07/15 04:10:14;;;;;;;2.28;2.22;;;;;;;-145.94;37.31;74857.50;5134254;28;20196;-67
2023/07/15 04:12:40;;;;;;;4.78;2.38;;;;;;;-145.94;37.51;74863.59;5133749;28;20706;-66
2023/07/15 04:15:07;;;;;;;5.97;2.00;;;;;;;-145.94;37.30;74865.63;5134043;27;20189;-66
2023/07/15 04:17:34;;;;;;;2.33;2.27;;;;;;;-145.94;37.24;74867.69;5137505;27;20189;-66
2023/07/15 04:20:00;;;;;;;2.60;2.60;;;;;;;-145.94;37.26;74857.50;5137911;27;20215;-66
2023/07/15 04:22:27;;;;;;;2.20;2.20;;;;;;;-145.94;37.34;74853.41;5137385;27;20200;-67
2023/07/15 04:24:53;;;;;;;2.77;2.77;;;;;;;-145.94;37.85;74855.44;5137955;27;20169;-67
2023/07/15 04:27:20;;;;;;;2.55;2.55;;;;;;;-145.94;37.30;74851.38;5137608;27;20627;-66
2023/07/15 04:29:46;;;;;;;2.53;2.47;;;;;;;-145.94;37.20;74847.28;5137315;27;20192;-66
2023/07/15 04:32:13;;;;;;;2.40;2.40;;;;;;;-145.94;37.28;74841.19;5137337;27;20196;-67
2023/07/15 04:34:39;;;;;;;2.05;2.05;;;;;;;-145.94;37.38;74841.19;5137419;27;20711;-67
2023/07/15 04:37:05;;;;;;;1.65;1.65;;;;;;;-145.94;37.30;74826.91;5137170;27;20229;-67
2023/07/15 04:39:32;;;;;;;2.08;1.98;;;;;;;-145.94;37.35;74822.84;5136998;27;20196;-67
2023/07/15 04:41:58;;;;;;;2.10;2.03;;;;;;;-145.94;36.78;74812.66;5119128;27;20261;-67
2023/07/15 04:44:25;;;;;;;1.77;1.65;;;;;;;-145.94;37.00;74810.59;5136988;27;20714;-67
2023/07/15 04:46:51;;;;;;;2.58;2.28;;;;;;;-145.94;37.40;74806.53;5136989;27;20237;-66
2023/07/15 04:49:18;;;;;;;2.63;2.22;;;;;;;-145.94;37.27;74806.53;5137209;27;20200;-66
2023/07/15 04:51:45;;;;;;;2.30;2.30;;;;;;;-145.94;37.59;74812.66;5137361;27;20211;-67
2023/07/15 04:54:12;;;;;;;3.08;2.13;;;;;;;-145.94;37.48;74812.66;5136820;27;20184;-67
2023/07/15 04:56:39;;;;;;;2.30;2.30;;;;;;;-145.94;37.30;74804.50;5136782;27;20226;-67
2023/07/15 04:59:07;;;;;;;2.42;2.40;;;;;;;-145.94;37.45;74798.38;5136674;27;20677;-67
2023/07/15 05:01:34;;;;;;;2.50;2.50;;;;;;;-145.94;37.43;74798.38;5136569;27;20220;-66
2023/07/15 05:04:01;;;;;;;2.90;2.10;;;;;;;-145.94;37.52;74794.31;5136862;27;20184;-66
2023/07/15 05:06:28;;;;;;;2.17;2.17;;;;;;;-145.94;38.04;74796.34;5136838;27;20176;-66
2023/07/15 05:08:55;;;;;;;2.13;2.00;;;;;;;-145.94;37.92;74782.06;5137126;27;20353;-66
2023/07/15 05:11:24;;;;;;;3.17;3.00;;;;;;;-145.94;37.92;74784.13;5136952;27;20216;-66
2023/07/15 05:13:50;;;;;;;1.95;1.95;;;;;;;-145.94;38.26;74786.16;5136733;27;20233;-66
2023/07/15 05:16:17;;;;;;;2.17;2.08;;;;;;;-145.94;38.36;74784.13;5136342;27;20187;-66
2023/07/15 05:18:44;;;;;;;2.25;2.25;;;;;;;-145.94;37.81;74788.19;5136505;27;20200;-66
2023/07/15 05:21:10;;;;;;;2.60;2.30;;;;;;;-145.94;37.83;74780.03;5136217;27;20558;-66
2023/07/15 05:23:37;;;;;;;2.10;2.10;;;;;;;-145.94;37.80;74780.03;5136230;27;20181;-66
2023/07/15 05:26:04;;;;;;;2.38;2.20;;;;;;;-145.94;37.85;74780.03;5136471;27;20196;-66
2023/07/15 05:28:30;;;;;;;2.15;2.15;;;;;;;-145.94;37.77;74769.84;5135629;27;20180;-66
2023/07/15 05:30:58;;;;;;;2.15;2.15;;;;;;;-145.94;38.15;74773.91;5135867;27;20185;-67
2023/07/15 05:33:24;;;;;;;1.80;1.80;;;;;;;-145.94;38.15;74763.72;5135968;27;20242;-67
2023/07/15 05:35:51;;;;;;;1.80;1.80;;;;;;;-145.94;37.92;74757.63;5135979;27;20203;-67
2023/07/15 05:38:17;;;;;;;2.42;2.42;;;;;;;-145.94;38.11;74745.38;5136111;27;20185;-67
2023/07/15 05:40:44;;;;;;;2.50;2.22;;;;;;;-145.94;37.73;74743.34;5135927;27;20161;-66
2023/07/15 05:43:10;;;;;;;2.40;2.40;;;;;;;-145.94;38.30;74747.44;5136270;27;20204;-66
2023/07/15 05:45:40;;;;;;;2.53;2.33;;;;;;;-145.94;39.05;74735.19;5136010;27;20646;-67
2023/07/15 05:48:07;;;;;;;2.60;2.60;;;;;;;-145.94;38.73;74735.19;5117565;27;20180;-66
2023/07/15 05:50:34;;;;;;;3.20;2.83;;;;;;;-145.94;38.52;74733.16;5135984;27;20267;-66
2023/07/15 05:53:01;;;;;;;2.58;2.58;;;;;;;-145.94;38.87;74733.16;5135823;27;20204;-66
2023/07/15 05:55:28;;;;;;;3.00;2.80;;;;;;;-145.94;38.41;74731.13;5135621;27;20546;-66
2023/07/15 05:57:54;;;;;;;2.72;2.65;;;;;;;-145.94;38.83;74714.81;5135495;27;20184;-66
2023/07/15 06:00:21;;;;;;;2.17;2.17;;;;;;;-145.94;39.41;74712.78;5135685;27;20750;-66
2023/07/15 06:02:47;;;;;;;2.85;2.65;;;;;;;-145.94;38.25;74712.78;5135469;27;20249;-67
2023/07/15 06:05:14;;;;;;;2.20;2.20;;;;;;;-145.94;38.70;74704.63;5135383;27;20193;-66
2023/07/15 06:07:40;;;;;;;1.92;1.92;;;;;;;-145.94;38.71;74692.41;5135603;27;20181;-66
2023/07/15 06:10:07;;;;;;;2.22;2.13;;;;;;;-145.94;38.65;74676.09;5135625;27;20177;-66
2023/07/15 06:12:34;;;;;;;8.07;2.80;;;;;;;-145.94;39.30;74669.97;5135170;27;20209;-67
2023/07/15 06:15:00;;;;;;;7.10;2.42;;;;;;;-145.94;39.34;74665.91;5135475;27;20595;-67
2023/07/15 06:17:27;;;;;;;2.50;2.30;;;;;;;-145.94;38.20;74661.81;5135141;27;20646;-67
2023/07/15 06:19:53;;;;;;;2.60;2.60;;;;;;;-145.94;37.73;74651.63;5134973;27;20204;-66
2023/07/15 06:22:20;;;;;;;2.05;2.05;;;;;;;-145.94;38.20;74643.47;5135274;27;20253;-66
2023/07/15 06:24:46;;;;;;;4.43;2.20;;;;;;;-145.94;37.58;74637.38;5134988;27;20729;-67
2023/07/15 06:27:13;;;;;;;13.25;2.15;;;;;;;-145.94;36.90;74625.16;5135224;27;20184;-67
2023/07/15 06:29:41;;;;;;;2.22;2.15;;;;;;;-145.94;36.94;74623.09;5134946;27;20684;-67
2023/07/15 06:32:08;;;;;;;2.95;2.08;;;;;;;-145.94;37.12;74621.06;5134790;27;20204;-67
2023/07/15 06:34:34;;;;;;;2.13;2.10;;;;;;;-145.94;37.12;74606.81;5135078;27;20192;-67
2023/07/15 06:37:01;;;;;;;1.88;1.77;;;;;;;-145.94;36.83;74600.69;5134767;27;20241;-66
2023/07/15 06:39:27;;;;;;;2.13;2.03;;;;;;;-145.94;36.73;74610.88;5134480;27;20286;-67
2023/07/15 06:41:54;;;;;;;2.15;2.10;;;;;;;-145.94;37.40;74600.69;5134608;27;20205;-67
2023/07/15 06:44:20;;;;;;;4.68;2.13;;;;;;;-145.94;36.89;74586.41;5134939;27;20188;-67
2023/07/15 06:46:47;;;;;;;2.05;1.88;;;;;;;-145.94;36.96;74578.25;5135126;27;20203;-67
2023/07/15 06:49:14;;;;;;;5.55;2.17;;;;;;;-145.94;37.41;74572.16;5134838;27;20275;-67
2023/07/15 06:51:41;;;;;;;2.05;1.90;;;;;;;-145.94;37.59;74566.03;5134707;27;20200;-67
2023/07/15 06:54:07;;;;;;;1.85;1.77;;;;;;;-145.94;37.66;74559.94;5134491;27;20191;-67
2023/07/15 06:56:34;;;;;;;2.33;2.33;;;;;;;-145.94;36.49;74557.88;5134438;27;20233;-66
2023/07/15 06:59:00;;;;;;;1.90;1.85;;;;;;;-145.94;37.08;74547.69;5134593;27;20227;-67
2023/07/15 07:01:26;;;;;;;3.38;1.90;;;;;;;-145.94;36.75;74535.47;5134212;27;20211;-66
2023/07/15 07:03:53;;;;;;;2.42;2.22;;;;;;;-145.94;36.98;74525.28;5134386;27;20184;-67
2023/07/15 07:06:20;;;;;;;2.75;1.48;;;;;;;-145.94;37.53;74533.44;5134345;27;20185;-67
2023/07/15 07:08:47;;;;;;;2.20;2.10;;;;;;;-145.94;36.31;74529.34;5134322;27;20191;-67
2023/07/15 07:11:14;;;;;;;3.35;1.77;;;;;;;-145.94;37.14;74531.41;5134388;27;20275;-68
2023/07/15 07:13:41;;;;;;;1.85;1.85;;;;;;;-145.94;37.05;74521.19;5134277;27;20237;-66
2023/07/15 07:16:07;;;;;;;5.65;1.95;;;;;;;-145.94;36.12;74519.16;5134269;27;20230;-67
2023/07/15 07:18:34;;;;;;;4.15;1.85;;;;;;;-145.94;36.24;74508.97;5134203;28;20192;-67
2023/07/15 07:21:01;;;;;;;2.35;2.05;;;;;;;-145.94;36.40;74496.75;5134108;28;20185;-68
2023/07/15 07:23:29;;;;;;;4.38;1.88;;;;;;;-145.94;35.64;74511.00;5134150;28;20180;-67
2023/07/15 07:25:56;;;;;;;1.42;1.42;;;;;;;-145.94;36.23;74504.91;5134371;28;20559;-66
2023/07/15 07:28:36;;;;;;;2.05;1.80;;;;;;;-145.94;36.78;74506.94;5134356;28;20535;-66
2023/07/15 07:31:03;;;;;;;1.75;1.75;;;;;;;-145.94;37.37;74502.84;5133948;28;20192;-67
2023/07/15 07:33:29;;;;;;;1.67;1.60;;;;;;;-145.94;37.09;74492.66;5134554;28;20217;-67
2023/07/15 07:35:56;;;;;;;3.25;2.10;;;;;;;-145.94;37.19;74502.84;5134021;28;20196;-67
2023/07/15 07:38:22;;;;;;;2.85;2.67;;;;;;;-145.94;37.07;74506.94;5134033;28;20193;-67
2023/07/15 07:40:49;;;;;;;1.60;1.60;;;;;;;-145.94;37.07;74519.16;5134183;28;20212;-66
2023/07/15 07:43:15;;;;;;;1.92;1.92;;;;;;;-145.94;37.01;74527.31;5133949;28;20264;-67
2023/07/15 07:45:42;;;;;;;2.80;1.90;;;;;;;-145.94;37.16;74533.44;5134520;28;20196;-67
2023/07/15 07:48:08;;;;;;;2.05;2.05;;;;;;;-145.94;36.92;74543.63;5134216;28;20542;-66
2023/07/15 07:50:36;;;;;;;2.75;1.95;;;;;;;-145.94;37.52;74561.97;5135099;27;20177;-66
2023/07/15 07:53:02;;;;;;;1.75;1.75;;;;;;;-145.94;37.39;74564.00;5137915;27;20215;-66
2023/07/15 07:55:29;;;;;;;1.77;1.73;;;;;;;-145.94;37.59;74576.22;5137988;27;20544;-67
2023/07/15 07:57:55;;;;;;;2.17;2.17;;;;;;;-145.94;37.42;74576.22;5138459;27;20207;-66
2023/07/15 08:00:21;;;;;;;1.80;1.80;;;;;;;-145.94;37.79;74574.19;5138333;27;20624;-66
2023/07/15 08:02:48;;;;;;;4.05;2.00;;;;;;;-145.94;38.11;74576.22;5137719;27;20208;-66
2023/07/15 08:05:15;;;;;;;1.73;1.67;;;;;;;-145.94;38.51;74580.31;5137741;27;20185;-66
2023/07/15 08:07:41;;;;;;;2.15;2.05;;;;;;;-145.94;39.23;74564.00;5137702;27;20184;-67
2023/07/15 08:10:09;;;;;;;8.07;1.67;;;;;;;-145.94;38.17;74561.97;5137652;27;20181;-67
2023/07/15 08:12:35;;;;;;;7.93;1.80;;;;;;;-145.94;38.69;74555.84;5119384;27;20254;-67
2023/07/15 08:15:03;;;;;;;2.25;2.25;;;;;;;-145.94;38.60;74568.06;5137555;27;20188;-66
2023/07/15 08:17:34;;;;;;;7.43;2.13;;;;;;;-145.94;38.85;74564.00;5137506;27;20172;-66
2023/07/15 08:20:00;;;;;;;2.63;2.42;;;;;;;-145.94;38.83;74572.16;5137975;27;20200;-67
2023/07/15 08:22:27;;;;;;;2.08;1.98;;;;;;;-145.94;38.77;74586.41;5137402;27;20253;-66
2023/07/15 08:24:54;;;;;;;1.50;1.50;;;;;;;-145.94;38.85;74582.34;5137676;27;20267;-66
2023/07/15 08:27:21;;;;;;;2.00;2.00;;;;;;;-145.94;39.25;74588.47;5137591;27;20185;-67
2023/07/15 08:29:47;;;;;;;7.15;3.10;;;;;;;-145.94;38.83;74594.56;5137656;27;20200;-67
2023/07/15 08:32:14;;;;;;;1.60;1.60;;;;;;;-145.94;38.46;74578.25;5137173;27;20576;-67
2023/07/15 08:35:05;;;;;;;2.15;2.05;;;;;;;-145.94;38.76;74588.47;5136904;27;20548;-67
2023/07/15 08:37:32;;;;;;;2.10;2.10;;;;;;;-145.94;37.91;74594.56;5137371;27;20192;-67
2023/07/15 08:39:58;;;;;;;2.15;2.15;;;;;;;-145.94;38.47;74576.22;5118615;27;20212;-67
2023/07/15 08:42:25;;;;;;;3.63;2.40;;;;;;;-145.94;37.77;74584.38;5136976;27;20200;-67
2023/07/15 08:44:52;;;;;;;3.22;2.22;;;;;;;-145.94;37.66;74592.53;5136914;27;20700;-66
2023/07/15 08:47:23;;;;;;;2.30;2.10;;;;;;;-145.94;38.61;74598.66;5136876;27;20184;-67
2023/07/15 08:49:53;;;;;;;2.20;2.00;;;;;;;-145.94;38.73;74602.72;5137412;27;20611;-66
2023/07/15 08:52:21;;;;;;;4.97;2.28;;;;;;;-145.94;37.82;74604.75;5136785;27;20642;-67
2023/07/15 08:54:50;;;;;;;2.33;1.92;;;;;;;-145.94;38.85;74617.00;5137084;27;20181;-67
2023/07/15 08:57:24;;;;;;;2.85;2.35;;;;;;;-145.94;38.35;74617.00;5136807;27;20168;-67
2023/07/15 08:59:56;;;;;;;2.25;2.15;;;;;;;-145.94;39.04;74614.94;5136933;27;20279;-67
2023/07/15 09:02:23;;;;;;;1.92;1.90;;;;;;;-145.94;38.31;74629.22;5136663;27;20210;-67
2023/07/15 09:04:49;;;;;;;3.30;2.65;;;;;;;-145.94;38.31;74617.00;5136578;27;20185;-67
2023/07/15 09:07:24;;;;;;;7.82;2.50;;;;;;;-145.94;38.90;74635.34;5136767;27;20550;-67
2023/07/15 09:09:50;;;;;;;3.05;2.08;;;;;;;-145.94;39.12;74635.34;5136504;27;20186;-67
2023/07/15 09:12:17;;;;;;;2.90;1.98;;;;;;;-145.94;38.99;74639.41;5136724;27;20201;-67
2023/07/15 09:14:45;;;;;;;3.25;2.17;;;;;;;-145.94;39.15;74647.56;5137075;27;20176;-67
2023/07/15 09:17:21;;;;;;;2.45;2.35;;;;;;;-145.94;39.21;74661.81;5136402;27;20224;-66
2023/07/15 09:19:48;;;;;;;3.03;1.92;;;;;;;-145.94;39.33;74669.97;5136439;27;20594;-67
2023/07/15 09:22:17;;;;;;;3.75;2.40;;;;;;;-145.94;39.70;74688.31;5136516;27;20213;-67
2023/07/15 09:24:44;;;;;;;1.83;1.83;;;;;;;-145.94;40.05;74698.50;5136434;27;20191;-66
2023/07/15 09:27:10;;;;;;;4.32;2.08;;;;;;;-145.94;40.25;74714.81;5136438;27;20184;-67
2023/07/15 09:29:37;;;;;;;2.55;2.35;;;;;;;-145.94;40.61;74722.97;5136241;27;20607;-66
2023/07/15 09:32:06;;;;;;;3.60;2.25;;;;;;;-145.94;41.81;74751.50;5136109;27;20305;-66
2023/07/15 09:34:38;;;;;;;4.22;2.50;;;;;;;-145.94;43.75;74784.13;5136305;27;20169;-66
2023/07/15 09:37:05;;;;;;;7.05;2.72;;;;;;;-145.94;45.03;74833.03;5136180;27;20172;-66
2023/07/15 09:39:31;;;;;;;1.98;1.98;;;;;;;-145.94;46.88;74871.75;5135822;27;20211;-66
2023/07/15 09:42:03;;;;;;;7.00;2.03;;;;;;;-145.94;48.34;74916.59;5135764;27;20250;-66
2023/07/15 09:44:40;;;;;;;2.20;2.17;;;;;;;-145.94;49.20;74928.81;5136090;27;20180;-66
2023/07/15 09:47:08;;;;;;;7.32;2.35;;;;;;;-145.94;50.21;74963.47;5136000;27;20684;-66
2023/07/15 09:49:35;;;;;;;4.03;2.33;;;;;;;-145.94;51.37;74979.78;5135758;27;20187;-66
2023/07/15 09:52:04;;;;;;;1.67;1.67;;;;;;;-145.94;52.26;74989.97;5135529;27;20275;-66
2023/07/15 09:54:33;;;;;;;2.00;2.00;;;;;;;-145.94;53.30;75018.50;5136185;27;20542;-67
2023/07/15 09:57:03;;;;;;;4.33;2.50;;;;;;;-145.94;54.05;75036.84;5135586;27;20184;-66
2023/07/15 09:59:46;;;;;;;2.80;2.40;;;;;;;-145.94;54.84;75065.38;5136122;27;20177;-66
2023/07/15 10:02:18;;;;;;;2.47;2.37;;;;;;;-145.94;55.87;75093.91;5135540;27;20295;-66
2023/07/15 10:04:46;;;;;;;2.90;2.67;;;;;;;-145.94;56.20;75081.69;5135937;27;20233;-66
2023/07/15 10:07:14;;;;;;;7.33;2.43;;;;;;;-145.94;56.61;75083.72;5135403;27;20185;-66
2023/07/15 10:09:41;;;;;;;2.83;2.73;;;;;;;-145.94;57.04;75104.13;5135942;27;20161;-66
2023/07/15 10:12:08;;;;;;;2.43;2.43;;;;;;;-145.94;57.55;75112.28;5135254;27;20200;-66
2023/07/15 10:14:37;;;;;;;6.23;3.07;;;;;;;-145.94;58.31;75106.16;5134762;27;20275;-66
2023/07/15 10:17:14;;;;;;;2.33;2.33;;;;;;;-145.94;58.66;75100.03;5135140;27;20192;-66
2023/07/15 10:19:49;;;;;;;3.37;3.10;;;;;;;-145.94;60.28;75112.28;5135042;27;20232;-66
2023/07/15 10:22:19;;;;;;;3.57;3.57;;;;;;;-145.94;61.34;75118.38;5135016;27;20677;-66
2023/07/15 10:24:54;;;;;;;4.50;3.17;;;;;;;-145.94;62.28;75114.31;5135033;27;20227;-66
2023/07/15 10:27:21;;;;;;;3.07;2.97;;;;;;;-145.94;62.26;75128.56;5135298;27;20183;-66
2023/07/15 10:30:17;;;;;;;4.00;3.80;;;;;;;-145.94;62.48;75108.19;5134817;27;20535;-67
2023/07/15 10:32:59;;;;;;;3.90;3.67;;;;;;;-145.94;62.90;75108.19;5135255;27;20543;-66
2023/07/15 10:35:26;;;;;;;3.23;3.13;;;;;;;-145.94;63.17;75106.16;5116731;27;20190;-66
2023/07/15 10:37:55;;;;;;;2.57;2.57;;;;;;;-145.94;62.94;75112.28;5135040;27;20184;-67
2023/07/15 10:40:47;;;;;;;2.57;2.47;;;;;;;-145.94;63.22;75112.28;5135266;27;20548;-66
2023/07/15 10:43:19;;;;;;;2.80;2.67;;;;;;;-145.94;63.16;75122.47;5134673;27;20211;-66
2023/07/15 10:45:53;;;;;;;3.63;3.30;;;;;;;-145.94;62.79;75151.00;5134633;27;20195;-66
2023/07/15 10:48:21;;;;;;;3.10;3.10;;;;;;;-145.94;62.91;75142.84;5134976;27;20637;-66
2023/07/15 10:50:52;;;;;;;3.33;3.20;;;;;;;-145.94;62.85;75120.41;5135095;27;20649;-68
2023/07/15 10:53:25;;;;;;;3.53;3.43;;;;;;;-145.94;63.49;75104.13;5135062;27;20215;-67
2023/07/15 10:56:05;;;;;;;3.43;3.20;;;;;;;-145.94;64.10;75104.13;5134575;27;20225;-67
2023/07/15 10:58:34;;;;;;;4.13;4.03;;;;;;;-145.94;63.64;75098.00;5135025;27;20184;-67
2023/07/15 11:01:04;;;;;;;3.93;3.83;;;;;;;-145.94;64.05;75081.69;5134814;27;20200;-68
2023/07/15 11:03:33;;;;;;;4.83;4.63;;;;;;;-145.94;64.60;75069.47;5134452;27;20183;-67
2023/07/15 11:06:04;;;;;;;10.53;4.43;;;;;;;-145.94;63.78;75057.22;5134643;27;20184;-67
2023/07/15 11:08:38;;;;;;;4.30;4.30;;;;;;;-145.94;63.73;75036.84;5134914;27;20255;-66
2023/07/15 11:11:08;;;;;;;3.97;3.97;;;;;;;-145.94;63.15;75028.69;5134540;27;20551;-68
2023/07/15 11:13:40;;;;;;;4.70;4.30;;;;;;;-145.94;62.83;75018.50;5134170;27;20195;-68
2023/07/15 11:16:07;;;;;;;3.37;3.37;;;;;;;-145.94;62.98;75014.44;5134442;27;20229;-66
2023/07/15 11:18:34;;;;;;;3.40;3.17;;;;;;;-145.94;62.06;75012.38;5134258;27;20199;-66
2023/07/15 11:21:01;;;;;;;2.47;2.43;;;;;;;-145.94;61.16;75014.44;5134499;28;20209;-67
2023/07/15 11:23:28;;;;;;;2.30;2.30;;;;;;;-145.94;61.02;75012.38;5134094;28;20207;-66